Terminal Aerodrome Forecast
Issued by NWS Bismarck, ND

Home | Current Version | Previous Version | Text Only | Print | Product List | Glossary Off
Versions: 1 2 3 4 5 6 7 8 9 10 11 12 13 14 15 16 17 18 19 20 21

000
FTUS43 KBIS 221120
TAFISN
TAF
KISN 221120Z 2212/2312 VRB04KT P6SM SCT200
     FM222000 04007KT P6SM VCTS SCT060CB BKN140
     FM230500 07005KT P6SM BKN150=

USA.gov is the U.S. government's official web portal to all federal, state and local government web resources and services.